Time;durP1;ratioP1;P1;durP2;ratioP2;P2;SDS_P1;SDS_P2;PMS_P1;PMS_P2;Temp;Humidity;BMP_temperature;BMP_pressure;BME280_temperature;BME280_humidity;BME280_pressure;Samples;Min_cycle;Max_cycle;Signal;HPM_P1;HPM_P2
2023/06/27 00:01:17;;;;;;;2.08;1.00;;;;;;;;;;4970484;28;20698;-74
2023/06/27 00:03:42;;;;;;;1.10;0.80;;;;;;;;;;4964192;28;20034;-74
2023/06/27 00:06:08;;;;;;;0.80;0.70;;;;;;;;;;4980491;28;20042;-74
2023/06/27 00:08:33;;;;;;;1.55;1.05;;;;;;;;;;4962007;28;20070;-73
2023/06/27 00:10:59;;;;;;;1.67;0.90;;;;;;;;;;4980502;28;20154;-73
2023/06/27 00:13:25;;;;;;;4.57;1.00;;;;;;;;;;4962926;28;20648;-73
2023/06/27 00:15:52;;;;;;;1.92;1.05;;;;;;;;;;4981069;28;20046;-73
2023/06/27 00:18:22;;;;;;;2.28;1.05;;;;;;;;;;4982845;28;20060;-73
2023/06/27 00:20:49;;;;;;;2.80;0.93;;;;;;;;;;4971946;28;20518;-74
2023/06/27 00:23:24;;;;;;;1.58;1.00;;;;;;;;;;4977386;28;20043;-74
2023/06/27 00:25:50;;;;;;;1.77;0.90;;;;;;;;;;4982877;28;20034;-74
2023/06/27 00:28:15;;;;;;;1.13;0.80;;;;;;;;;;4984367;28;20041;-74
2023/06/27 00:30:40;;;;;;;1.42;1.00;;;;;;;;;;4984028;28;20046;-74
2023/06/27 00:33:09;;;;;;;2.00;0.88;;;;;;;;;;4980945;28;20041;-74
2023/06/27 00:35:37;;;;;;;1.70;0.90;;;;;;;;;;4969741;28;20036;-75
2023/06/27 00:38:03;;;;;;;1.80;0.80;;;;;;;;;;4978258;28;20762;-74
2023/06/27 00:40:28;;;;;;;1.40;0.80;;;;;;;;;;4980852;28;20045;-74
2023/06/27 00:42:53;;;;;;;2.78;1.05;;;;;;;;;;4960497;28;20489;-74
2023/06/27 00:45:22;;;;;;;1.67;0.90;;;;;;;;;;4981500;28;20273;-74
2023/06/27 00:47:47;;;;;;;0.90;0.60;;;;;;;;;;4974266;28;20065;-75
2023/06/27 00:50:12;;;;;;;1.88;1.02;;;;;;;;;;4983770;28;20037;-74
2023/06/27 00:52:39;;;;;;;5.35;1.00;;;;;;;;;;4982681;28;20038;-74
2023/06/27 00:55:07;;;;;;;2.20;0.75;;;;;;;;;;4980784;28;20207;-74
2023/06/27 00:57:32;;;;;;;0.80;0.70;;;;;;;;;;4981982;28;20042;-74
2023/06/27 00:59:58;;;;;;;0.95;0.77;;;;;;;;;;4984043;28;20869;-74
2023/06/27 01:02:23;;;;;;;0.63;0.63;;;;;;;;;;4978939;28;20117;-74
2023/06/27 01:04:50;;;;;;;1.58;0.82;;;;;;;;;;4979081;28;20048;-75
2023/06/27 01:07:45;;;;;;;1.02;0.80;;;;;;;;;;4979225;28;20668;-74
2023/06/27 01:10:21;;;;;;;5.28;0.93;;;;;;;;;;4982758;28;20538;-74
2023/06/27 01:13:30;;;;;;;0.98;0.85;;;;;;;;;;4970647;28;20621;-75
2023/06/27 01:15:59;;;;;;;1.88;0.70;;;;;;;;;;4934275;28;20035;-75
2023/06/27 01:18:27;;;;;;;3.15;0.98;;;;;;;;;;4935528;28;20050;-74
2023/06/27 01:20:53;;;;;;;4.25;0.95;;;;;;;;;;4958912;28;20117;-74
2023/06/27 01:23:26;;;;;;;1.70;0.90;;;;;;;;;;4968496;28;20169;-74
2023/06/27 01:26:05;;;;;;;2.15;0.80;;;;;;;;;;4984583;28;20121;-74
2023/06/27 01:28:32;;;;;;;2.90;0.95;;;;;;;;;;4978779;28;20073;-75
2023/06/27 01:31:01;;;;;;;1.50;1.02;;;;;;;;;;4986320;28;20042;-74
2023/06/27 01:33:39;;;;;;;4.43;1.02;;;;;;;;;;4963016;28;20125;-75
2023/06/27 01:36:27;;;;;;;3.55;1.08;;;;;;;;;;4974267;28;20024;-75
2023/06/27 01:39:08;;;;;;;2.35;0.88;;;;;;;;;;4978348;28;20162;-75
2023/06/27 01:41:37;;;;;;;2.75;0.80;;;;;;;;;;4985678;28;20064;-74
2023/06/27 01:44:06;;;;;;;1.90;0.80;;;;;;;;;;4976477;28;20034;-74
2023/06/27 01:46:32;;;;;;;1.42;0.70;;;;;;;;;;4982467;28;20057;-74
2023/06/27 01:48:59;;;;;;;0.82;0.80;;;;;;;;;;4978254;28;20129;-74
2023/06/27 01:51:24;;;;;;;2.00;0.90;;;;;;;;;;4979480;28;20042;-74
2023/06/27 01:53:50;;;;;;;2.78;1.20;;;;;;;;;;4979799;28;20035;-74
2023/06/27 01:56:16;;;;;;;2.45;0.90;;;;;;;;;;4967574;28;20034;-74
2023/06/27 01:58:42;;;;;;;3.42;0.95;;;;;;;;;;4949370;28;20046;-74
2023/06/27 02:01:08;;;;;;;4.32;0.98;;;;;;;;;;4974730;28;20053;-74
2023/06/27 02:03:34;;;;;;;0.82;0.80;;;;;;;;;;4976343;28;20533;-74
2023/06/27 02:05:59;;;;;;;1.25;0.70;;;;;;;;;;4963911;28;20081;-74
2023/06/27 02:08:25;;;;;;;3.13;1.00;;;;;;;;;;4981625;28;20037;-74
2023/06/27 02:10:50;;;;;;;1.40;1.00;;;;;;;;;;4977888;28;20089;-74
2023/06/27 02:13:16;;;;;;;1.67;1.08;;;;;;;;;;4968760;28;20042;-74
2023/06/27 02:15:41;;;;;;;1.02;0.82;;;;;;;;;;4984691;28;20030;-74
2023/06/27 02:18:06;;;;;;;2.08;0.55;;;;;;;;;;4976297;28;20050;-75
2023/06/27 02:20:32;;;;;;;2.92;1.05;;;;;;;;;;4980286;28;20093;-75
2023/06/27 02:22:57;;;;;;;1.98;0.85;;;;;;;;;;4978899;28;20053;-75
2023/06/27 02:25:22;;;;;;;1.38;0.80;;;;;;;;;;4979461;28;20038;-74
2023/06/27 02:27:48;;;;;;;1.33;0.60;;;;;;;;;;4974040;28;20034;-74
2023/06/27 02:30:13;;;;;;;2.45;0.90;;;;;;;;;;4979636;28;20037;-74
2023/06/27 02:32:38;;;;;;;1.65;0.80;;;;;;;;;;4981919;28;20046;-75
2023/06/27 02:35:04;;;;;;;1.50;0.70;;;;;;;;;;4984884;28;20081;-74
2023/06/27 02:37:30;;;;;;;1.63;0.60;;;;;;;;;;4988881;28;20054;-74
2023/06/27 02:39:56;;;;;;;2.42;1.00;;;;;;;;;;4987031;28;20034;-74
2023/06/27 02:42:22;;;;;;;2.80;0.90;;;;;;;;;;4968927;28;20085;-74
2023/06/27 02:44:48;;;;;;;1.73;0.90;;;;;;;;;;4975110;28;20031;-74
2023/06/27 02:47:14;;;;;;;1.60;0.75;;;;;;;;;;4974170;28;20093;-74
2023/06/27 02:49:40;;;;;;;3.45;0.95;;;;;;;;;;4986902;28;20044;-74
2023/06/27 02:52:06;;;;;;;1.27;0.90;;;;;;;;;;4974742;28;20046;-74
2023/06/27 02:54:31;;;;;;;3.13;0.82;;;;;;;;;;4977923;28;20185;-75
2023/06/27 02:56:56;;;;;;;1.17;0.75;;;;;;;;;;4978225;28;20038;-74
2023/06/27 02:59:22;;;;;;;1.42;0.80;;;;;;;;;;4981688;28;20054;-74
2023/06/27 03:01:47;;;;;;;4.40;1.20;;;;;;;;;;4976233;28;20101;-74
2023/06/27 03:04:18;;;;;;;1.42;0.70;;;;;;;;;;4976984;28;20046;-73
2023/06/27 03:06:43;;;;;;;;;;;;;;;;;;4987549;28;20121;-73
2023/06/27 03:09:09;;;;;;;1.10;0.68;;;;;;;;;;4973029;28;20004;-73
2023/06/27 03:11:34;;;;;;;1.15;0.75;;;;;;;;;;4981639;28;20533;-73
2023/06/27 03:13:59;;;;;;;1.10;0.68;;;;;;;;;;4978187;28;20037;-73
2023/06/27 03:16:25;;;;;;;0.93;0.80;;;;;;;;;;4982388;28;20042;-73
2023/06/27 03:18:50;;;;;;;0.93;0.63;;;;;;;;;;4984754;28;20073;-73
2023/06/27 03:21:16;;;;;;;1.75;0.80;;;;;;;;;;4974810;28;20038;-75
2023/06/27 03:23:41;;;;;;;1.13;0.80;;;;;;;;;;4971460;28;20371;-73
2023/06/27 03:26:06;;;;;;;2.15;0.70;;;;;;;;;;4979359;28;20057;-72
2023/06/27 03:28:32;;;;;;;1.65;0.80;;;;;;;;;;4984971;28;20045;-73
2023/06/27 03:30:57;;;;;;;0.93;0.70;;;;;;;;;;4982395;28;20049;-73
2023/06/27 03:33:22;;;;;;;1.05;0.68;;;;;;;;;;4985457;28;20040;-72
2023/06/27 03:35:48;;;;;;;2.33;1.00;;;;;;;;;;4976841;28;20022;-72
2023/06/27 03:38:13;;;;;;;1.77;0.95;;;;;;;;;;4973246;28;20041;-72
2023/06/27 03:40:38;;;;;;;1.17;0.98;;;;;;;;;;4984581;28;20459;-73
2023/06/27 03:43:04;;;;;;;1.40;1.02;;;;;;;;;;4975782;28;20046;-73
2023/06/27 03:45:29;;;;;;;2.08;0.80;;;;;;;;;;4969251;28;20049;-74
2023/06/27 03:47:55;;;;;;;1.50;0.77;;;;;;;;;;4976279;28;20573;-74
2023/06/27 03:50:20;;;;;;;5.13;1.20;;;;;;;;;;4987129;28;20070;-74
2023/06/27 03:52:45;;;;;;;2.97;0.98;;;;;;;;;;4974017;28;20056;-77
2023/06/27 03:55:11;;;;;;;1.75;1.10;;;;;;;;;;4983171;28;20113;-76
2023/06/27 03:57:36;;;;;;;1.52;0.90;;;;;;;;;;4979239;28;20050;-75
2023/06/27 04:00:03;;;;;;;2.78;0.88;;;;;;;;;;4976958;28;20042;-75
2023/06/27 04:02:29;;;;;;;2.95;1.08;;;;;;;;;;4964794;28;20046;-76
2023/06/27 04:04:54;;;;;;;2.58;1.00;;;;;;;;;;4975371;28;20046;-75
2023/06/27 04:07:19;;;;;;;2.55;1.10;;;;;;;;;;4953492;28;20121;-75
2023/06/27 04:09:45;;;;;;;0.77;0.77;;;;;;;;;;4977456;28;20549;-75
2023/06/27 04:12:10;;;;;;;1.42;1.00;;;;;;;;;;4971698;28;20039;-75
2023/06/27 04:14:35;;;;;;;1.58;1.10;;;;;;;;;;4969993;28;20045;-75
2023/06/27 04:17:01;;;;;;;2.15;0.98;;;;;;;;;;4978306;28;20089;-74
2023/06/27 04:19:26;;;;;;;1.85;1.17;;;;;;;;;;4975216;28;20030;-76
2023/06/27 04:21:51;;;;;;;2.17;0.98;;;;;;;;;;4968286;28;20393;-76
2023/06/27 04:24:17;;;;;;;2.22;0.70;;;;;;;;;;4979910;28;20038;-75
2023/06/27 04:26:42;;;;;;;1.88;0.90;;;;;;;;;;4983197;28;20050;-75
2023/06/27 04:29:08;;;;;;;3.50;1.00;;;;;;;;;;4977983;28;20065;-76
2023/06/27 04:31:34;;;;;;;2.20;0.98;;;;;;;;;;4976885;28;20042;-74
2023/06/27 04:33:59;;;;;;;4.45;1.30;;;;;;;;;;4974154;28;20046;-75
2023/06/27 04:36:28;;;;;;;1.33;1.00;;;;;;;;;;4978238;28;20073;-74
2023/06/27 04:38:53;;;;;;;0.93;0.80;;;;;;;;;;4979036;28;20439;-73
2023/06/27 04:41:19;;;;;;;1.45;0.70;;;;;;;;;;4979906;28;20129;-73
2023/06/27 04:43:44;;;;;;;1.17;0.80;;;;;;;;;;4971996;28;20116;-75
2023/06/27 04:46:10;;;;;;;3.13;1.15;;;;;;;;;;4958219;28;20054;-76
2023/06/27 04:48:35;;;;;;;1.10;0.90;;;;;;;;;;4972679;28;20034;-75
2023/06/27 04:51:01;;;;;;;3.83;1.15;;;;;;;;;;4984384;28;20129;-75
2023/06/27 04:53:26;;;;;;;1.38;0.85;;;;;;;;;;4965763;28;20438;-76
2023/06/27 04:55:53;;;;;;;1.67;1.00;;;;;;;;;;4983292;28;20040;-75
2023/06/27 04:58:19;;;;;;;2.08;0.75;;;;;;;;;;4966203;28;20047;-76
2023/06/27 05:00:46;;;;;;;3.13;1.20;;;;;;;;;;4977910;28;20595;-76
2023/06/27 05:03:13;;;;;;;4.28;1.25;;;;;;;;;;4950726;28;20498;-75
2023/06/27 05:05:38;;;;;;;2.08;1.05;;;;;;;;;;4977235;28;20081;-75
2023/06/27 05:08:04;;;;;;;2.08;0.90;;;;;;;;;;4984216;28;20042;-75
2023/06/27 05:10:30;;;;;;;3.10;1.30;;;;;;;;;;4977267;28;20053;-75
2023/06/27 05:12:56;;;;;;;1.42;1.02;;;;;;;;;;4978645;28;20108;-75
2023/06/27 05:15:22;;;;;;;2.03;0.80;;;;;;;;;;4977927;28;20062;-75
2023/06/27 05:18:14;;;;;;;1.23;0.80;;;;;;;;;;4951964;28;20078;-75
2023/06/27 05:20:40;;;;;;;1.42;0.90;;;;;;;;;;4977753;28;20034;-76
2023/06/27 05:23:06;;;;;;;5.32;1.40;;;;;;;;;;4985634;28;20042;-75
2023/06/27 05:25:32;;;;;;;1.75;0.85;;;;;;;;;;4981838;28;20670;-76
2023/06/27 05:27:58;;;;;;;2.60;1.10;;;;;;;;;;4971050;28;20637;-75
2023/06/27 05:30:24;;;;;;;1.67;0.82;;;;;;;;;;4963694;28;20034;-75
2023/06/27 05:32:49;;;;;;;1.60;0.70;;;;;;;;;;4975127;28;20049;-76
2023/06/27 05:35:15;;;;;;;1.08;0.77;;;;;;;;;;4984249;28;20065;-76
2023/06/27 05:37:40;;;;;;;2.15;0.77;;;;;;;;;;4966357;28;20037;-77
2023/06/27 05:40:06;;;;;;;1.95;1.20;;;;;;;;;;4983605;28;20062;-77
2023/06/27 05:42:32;;;;;;;2.08;0.90;;;;;;;;;;4954586;28;20081;-78
2023/06/27 05:44:58;;;;;;;2.35;0.98;;;;;;;;;;4985579;28;20042;-76
2023/06/27 05:47:23;;;;;;;2.92;1.20;;;;;;;;;;4976540;28;20038;-77
2023/06/27 05:49:48;;;;;;;1.15;0.60;;;;;;;;;;4978682;28;20038;-77
2023/06/27 05:52:14;;;;;;;3.10;1.08;;;;;;;;;;4968549;28;20123;-77
2023/06/27 05:54:41;;;;;;;1.85;1.08;;;;;;;;;;4985591;28;20042;-76
2023/06/27 05:57:07;;;;;;;2.15;1.08;;;;;;;;;;4968603;28;20045;-76
2023/06/27 05:59:33;;;;;;;2.63;1.00;;;;;;;;;;4969623;28;20030;-77
2023/06/27 06:01:58;;;;;;;3.38;1.52;;;;;;;;;;4951102;28;20519;-76
2023/06/27 06:04:24;;;;;;;0.90;0.60;;;;;;;;;;4977528;28;20117;-77
2023/06/27 06:06:49;;;;;;;2.97;1.27;;;;;;;;;;4975101;28;20071;-76
2023/06/27 06:09:14;;;;;;;1.83;0.60;;;;;;;;;;4975889;28;20077;-76
2023/06/27 06:11:40;;;;;;;2.03;0.80;;;;;;;;;;4976362;28;20050;-76
2023/06/27 06:14:05;;;;;;;1.02;0.80;;;;;;;;;;4985133;28;20089;-76
2023/06/27 06:16:33;;;;;;;2.42;1.00;;;;;;;;;;4985130;28;20042;-76
2023/06/27 06:19:02;;;;;;;3.13;1.27;;;;;;;;;;4983678;28;20045;-76
2023/06/27 06:21:28;;;;;;;2.15;0.80;;;;;;;;;;4980463;28;20089;-76
2023/06/27 06:23:53;;;;;;;2.50;1.13;;;;;;;;;;4971462;28;20042;-77
2023/06/27 06:26:19;;;;;;;1.52;0.77;;;;;;;;;;4959966;28;20135;-77
2023/06/27 06:28:44;;;;;;;0.63;0.63;;;;;;;;;;4976870;28;20136;-76
2023/06/27 06:31:16;;;;;;;2.30;0.75;;;;;;;;;;4975869;28;20050;-76
2023/06/27 06:33:45;;;;;;;1.08;0.82;;;;;;;;;;4981011;28;20135;-76
2023/06/27 06:36:11;;;;;;;1.73;0.95;;;;;;;;;;4979107;28;20093;-76
2023/06/27 06:38:36;;;;;;;2.55;1.10;;;;;;;;;;4978875;28;20471;-76
2023/06/27 06:41:02;;;;;;;2.80;0.95;;;;;;;;;;4951787;28;20041;-77
2023/06/27 06:43:28;;;;;;;2.30;1.05;;;;;;;;;;4978327;28;20037;-77
2023/06/27 06:45:54;;;;;;;2.58;1.08;;;;;;;;;;4963732;28;20069;-77
2023/06/27 06:48:19;;;;;;;3.67;1.42;;;;;;;;;;4974434;28;20125;-77
2023/06/27 06:50:45;;;;;;;3.13;1.00;;;;;;;;;;4960243;28;20471;-79
2023/06/27 06:53:11;;;;;;;2.10;0.90;;;;;;;;;;4979509;28;20060;-77
2023/06/27 06:55:36;;;;;;;1.83;0.95;;;;;;;;;;4965863;28;20491;-77
2023/06/27 06:58:02;;;;;;;1.27;0.90;;;;;;;;;;4978025;28;20130;-77
2023/06/27 07:00:27;;;;;;;1.50;0.80;;;;;;;;;;4980353;28;20034;-78
2023/06/27 07:02:53;;;;;;;1.73;1.05;;;;;;;;;;4979531;28;20045;-78
2023/06/27 07:05:19;;;;;;;0.95;0.90;;;;;;;;;;4974225;28;20449;-77
2023/06/27 07:07:44;;;;;;;2.83;1.10;;;;;;;;;;4977715;28;20101;-75
2023/06/27 07:10:10;;;;;;;1.40;0.80;;;;;;;;;;4993157;28;20042;-76
2023/06/27 07:12:35;;;;;;;2.65;1.10;;;;;;;;;;4982153;28;20050;-76
2023/06/27 07:15:01;;;;;;;0.80;0.73;;;;;;;;;;4979038;28;20273;-76
2023/06/27 07:17:26;;;;;;;2.05;1.25;;;;;;;;;;4983479;28;20522;-77
2023/06/27 07:19:53;;;;;;;2.75;1.08;;;;;;;;;;4967492;28;20048;-77
2023/06/27 07:22:18;;;;;;;3.25;1.20;;;;;;;;;;4978653;28;20034;-77
2023/06/27 07:24:44;;;;;;;3.95;1.00;;;;;;;;;;4990081;28;20041;-77
2023/06/27 07:27:09;;;;;;;3.35;1.10;;;;;;;;;;4991680;28;20057;-77
2023/06/27 07:29:35;;;;;;;3.15;1.05;;;;;;;;;;4978960;28;20030;-78
2023/06/27 07:32:01;;;;;;;2.88;1.17;;;;;;;;;;4976664;28;20105;-77
2023/06/27 07:34:26;;;;;;;3.47;1.17;;;;;;;;;;4976923;28;20034;-78
2023/06/27 07:36:52;;;;;;;1.08;0.98;;;;;;;;;;4985002;28;20099;-77
2023/06/27 07:39:17;;;;;;;2.47;0.88;;;;;;;;;;4982454;28;20029;-78
2023/06/27 07:41:43;;;;;;;1.25;0.73;;;;;;;;;;4958583;28;20030;-77
2023/06/27 07:44:08;;;;;;;2.00;1.00;;;;;;;;;;4960310;28;20039;-78
2023/06/27 07:46:33;;;;;;;3.03;1.00;;;;;;;;;;4985658;28;20511;-78
2023/06/27 07:48:59;;;;;;;1.15;0.98;;;;;;;;;;4978737;28;20052;-75
2023/06/27 07:51:28;;;;;;;1.92;0.90;;;;;;;;;;4964303;28;20124;-78
2023/06/27 07:53:56;;;;;;;3.95;1.00;;;;;;;;;;4982112;28;20030;-77
2023/06/27 07:56:22;;;;;;;1.05;0.90;;;;;;;;;;4970001;28;20030;-77
2023/06/27 07:58:47;;;;;;;2.10;1.33;;;;;;;;;;4962625;28;20037;-78
2023/06/27 08:01:13;;;;;;;1.77;0.70;;;;;;;;;;4966206;28;20057;-77
2023/06/27 08:03:38;;;;;;;3.70;1.10;;;;;;;;;;4964644;28;20478;-77
2023/06/27 08:06:04;;;;;;;2.40;1.00;;;;;;;;;;4981533;28;20614;-78
2023/06/27 08:08:29;;;;;;;2.03;1.05;;;;;;;;;;4963199;28;20039;-78
2023/06/27 08:10:58;;;;;;;1.25;0.90;;;;;;;;;;4982209;28;20037;-77
2023/06/27 08:13:24;;;;;;;2.88;0.85;;;;;;;;;;4964721;28;20069;-78
2023/06/27 08:15:49;;;;;;;1.98;1.10;;;;;;;;;;4956993;28;20038;-78
2023/06/27 08:18:15;;;;;;;2.35;0.80;;;;;;;;;;4977482;28;20034;-78
2023/06/27 08:20:40;;;;;;;2.17;0.90;;;;;;;;;;4975112;28;20045;-78
2023/06/27 08:23:06;;;;;;;1.23;1.00;;;;;;;;;;4975342;28;20113;-77
2023/06/27 08:25:33;;;;;;;2.03;1.00;;;;;;;;;;4977540;28;20490;-78
2023/06/27 08:27:59;;;;;;;1.40;0.90;;;;;;;;;;4944689;28;20129;-77
2023/06/27 08:30:26;;;;;;;2.25;0.75;;;;;;;;;;4969751;28;20125;-78
2023/06/27 08:32:52;;;;;;;3.13;1.15;;;;;;;;;;4982082;28;20866;-78
2023/06/27 08:35:18;;;;;;;1.30;0.80;;;;;;;;;;4985504;28;20522;-78
2023/06/27 08:37:43;;;;;;;1.98;1.30;;;;;;;;;;4981729;28;20046;-78
2023/06/27 08:40:09;;;;;;;2.58;1.13;;;;;;;;;;4984243;28;20081;-78
2023/06/27 08:42:35;;;;;;;1.77;1.20;;;;;;;;;;4972140;28;20035;-77
2023/06/27 08:45:01;;;;;;;1.30;0.80;;;;;;;;;;4974267;28;20038;-78
2023/06/27 08:47:29;;;;;;;1.58;1.15;;;;;;;;;;4986619;28;20038;-78
2023/06/27 08:50:04;;;;;;;1.90;0.98;;;;;;;;;;4984248;28;20026;-78
2023/06/27 08:52:36;;;;;;;1.90;1.20;;;;;;;;;;4967073;28;20089;-78
2023/06/27 08:55:06;;;;;;;2.53;0.80;;;;;;;;;;4941819;28;20515;-78
2023/06/27 08:57:34;;;;;;;1.10;0.93;;;;;;;;;;4980927;28;20048;-79
2023/06/27 09:00:10;;;;;;;2.65;1.23;;;;;;;;;;4980833;28;20046;-78
2023/06/27 09:02:37;;;;;;;1.35;0.90;;;;;;;;;;4986583;28;20038;-78
2023/06/27 09:05:03;;;;;;;1.08;0.95;;;;;;;;;;4984204;28;20035;-78
2023/06/27 09:07:29;;;;;;;2.08;0.82;;;;;;;;;;4971350;28;20034;-78
2023/06/27 09:09:58;;;;;;;1.05;0.80;;;;;;;;;;4963729;28;20126;-78
2023/06/27 09:12:26;;;;;;;2.50;1.33;;;;;;;;;;4984590;28;20042;-78
2023/06/27 09:14:51;;;;;;;4.25;1.23;;;;;;;;;;4985483;28;20461;-78
2023/06/27 09:17:16;;;;;;;1.08;0.75;;;;;;;;;;4987065;28;20087;-78
2023/06/27 09:19:42;;;;;;;0.82;0.73;;;;;;;;;;4970277;28;20042;-78
2023/06/27 09:22:08;;;;;;;1.83;1.08;;;;;;;;;;4971880;28;20085;-78
2023/06/27 09:24:40;;;;;;;3.08;1.00;;;;;;;;;;4987408;28;20076;-78
2023/06/27 09:27:05;;;;;;;1.05;0.60;;;;;;;;;;4964054;28;20061;-79
2023/06/27 09:29:34;;;;;;;1.42;0.80;;;;;;;;;;4963916;28;20109;-79
2023/06/27 09:32:06;;;;;;;1.45;1.10;;;;;;;;;;4975921;28;20057;-78
2023/06/27 09:34:35;;;;;;;1.40;1.02;;;;;;;;;;4982467;28;20157;-78
2023/06/27 09:37:03;;;;;;;1.58;0.85;;;;;;;;;;4986124;28;20046;-78
2023/06/27 09:39:29;;;;;;;2.40;0.95;;;;;;;;;;4984690;28;20046;-78
2023/06/27 09:41:54;;;;;;;2.72;1.10;;;;;;;;;;4991448;28;20064;-78
2023/06/27 09:44:22;;;;;;;1.33;0.88;;;;;;;;;;4967642;28;20042;-77
2023/06/27 09:46:49;;;;;;;1.15;0.70;;;;;;;;;;4982155;28;20101;-78
2023/06/27 09:49:16;;;;;;;1.10;0.82;;;;;;;;;;4968436;28;20044;-78
2023/06/27 09:51:49;;;;;;;1.02;0.80;;;;;;;;;;4977840;28;20097;-78
2023/06/27 09:54:19;;;;;;;3.72;0.90;;;;;;;;;;4971161;23;20047;-78
2023/06/27 09:56:50;;;;;;;1.70;0.70;;;;;;;;;;4920214;28;21039;-77
2023/06/27 09:59:17;;;;;;;1.85;1.33;;;;;;;;;;4914782;28;20055;-77
2023/06/27 10:01:43;;;;;;;1.83;0.70;;;;;;;;;;4914545;28;20055;-77
2023/06/27 10:04:09;;;;;;;1.05;1.02;;;;;;;;;;4943638;28;20046;-77
2023/06/27 10:06:35;;;;;;;2.92;1.23;;;;;;;;;;4940802;28;20090;-78
2023/06/27 10:09:01;;;;;;;2.28;1.20;;;;;;;;;;4927488;28;20035;-77
2023/06/27 10:11:27;;;;;;;1.95;1.08;;;;;;;;;;4926599;28;20058;-78
2023/06/27 10:13:53;;;;;;;3.33;1.00;;;;;;;;;;4935526;28;20045;-78
2023/06/27 10:16:19;;;;;;;1.80;1.00;;;;;;;;;;4930152;28;20051;-78
2023/06/27 10:18:45;;;;;;;1.77;0.98;;;;;;;;;;4952137;28;20102;-77
2023/06/27 10:21:11;;;;;;;3.10;1.00;;;;;;;;;;4947123;28;20043;-78
2023/06/27 10:23:44;;;;;;;1.88;1.20;;;;;;;;;;4947741;28;20058;-77
2023/06/27 10:26:09;;;;;;;1.98;1.20;;;;;;;;;;4949676;28;20039;-77
2023/06/27 10:28:35;;;;;;;1.13;0.80;;;;;;;;;;4916862;28;20611;-78
2023/06/27 10:31:04;;;;;;;2.42;0.90;;;;;;;;;;4940015;28;20046;-78
2023/06/27 10:33:32;;;;;;;1.90;1.05;;;;;;;;;;4949746;28;20098;-78
2023/06/27 10:36:01;;;;;;;0.88;0.80;;;;;;;;;;4949560;28;20043;-78
2023/06/27 10:38:34;;;;;;;1.10;0.95;;;;;;;;;;4933510;28;20031;-78
2023/06/27 10:41:03;;;;;;;2.42;1.27;;;;;;;;;;4940258;28;20117;-78
2023/06/27 10:43:47;;;;;;;2.60;1.00;;;;;;;;;;4928682;28;20069;-78
2023/06/27 10:46:20;;;;;;;4.25;1.20;;;;;;;;;;4937695;28;20040;-78
2023/06/27 10:48:54;;;;;;;4.30;1.10;;;;;;;;;;4946015;28;20054;-77
2023/06/27 10:51:24;;;;;;;2.13;1.17;;;;;;;;;;4938794;28;20042;-77
2023/06/27 10:54:08;;;;;;;2.00;1.00;;;;;;;;;;4947046;28;20039;-76
2023/06/27 10:56:37;;;;;;;1.23;0.90;;;;;;;;;;4934312;28;20098;-77
2023/06/27 10:59:09;;;;;;;2.25;1.05;;;;;;;;;;4933150;28;20635;-78
2023/06/27 11:01:35;;;;;;;3.83;1.10;;;;;;;;;;4942356;28;20042;-78
2023/06/27 11:04:26;;;;;;;3.08;1.20;;;;;;;;;;4945351;28;20067;-77
2023/06/27 11:07:01;;;;;;;2.33;1.10;;;;;;;;;;4950784;28;20038;-77
2023/06/27 11:09:30;;;;;;;2.08;1.00;;;;;;;;;;4930252;28;20571;-78
2023/06/27 11:12:14;;;;;;;1.33;1.00;;;;;;;;;;4912710;29;20043;-78
2023/06/27 11:14:44;;;;;;;1.10;1.00;;;;;;;;;;4891130;28;20064;-78
2023/06/27 11:17:11;;;;;;;2.75;1.10;;;;;;;;;;4929662;28;20767;-78
2023/06/27 11:19:38;;;;;;;2.60;1.27;;;;;;;;;;4934903;28;20075;-77
2023/06/27 11:22:04;;;;;;;1.17;0.80;;;;;;;;;;4938981;28;20403;-78
2023/06/27 11:24:30;;;;;;;2.42;1.17;;;;;;;;;;4928355;28;20447;-78
2023/06/27 11:26:56;;;;;;;1.73;1.17;;;;;;;;;;4935062;28;20154;-77
2023/06/27 11:29:25;;;;;;;2.05;1.05;;;;;;;;;;4932824;28;20034;-78
2023/06/27 11:31:51;;;;;;;1.45;0.90;;;;;;;;;;4941443;28;20047;-77
2023/06/27 11:34:17;;;;;;;2.03;0.90;;;;;;;;;;4938601;28;20538;-76
2023/06/27 11:36:44;;;;;;;2.17;1.08;;;;;;;;;;4944976;28;20400;-76
2023/06/27 11:39:10;;;;;;;3.47;1.55;;;;;;;;;;4940451;28;20616;-76
2023/06/27 11:41:40;;;;;;;1.52;0.80;;;;;;;;;;4896535;28;20468;-76
2023/06/27 11:44:12;;;;;;;2.30;1.40;;;;;;;;;;4945133;28;20051;-77
2023/06/27 11:46:57;;;;;;;1.85;0.95;;;;;;;;;;4941987;28;20062;-76
2023/06/27 11:49:23;;;;;;;2.60;1.25;;;;;;;;;;4944320;28;20074;-77
2023/06/27 11:51:49;;;;;;;1.40;1.10;;;;;;;;;;4913655;28;20675;-76
2023/06/27 11:54:19;;;;;;;2.03;1.17;;;;;;;;;;4933110;28;20169;-76
2023/06/27 11:56:45;;;;;;;1.85;1.17;;;;;;;;;;4908909;29;20094;-76
2023/06/27 11:59:10;;;;;;;1.58;1.15;;;;;;;;;;4919707;28;20498;-78
2023/06/27 12:01:43;;;;;;;1.98;1.13;;;;;;;;;;4939956;28;20049;-78
2023/06/27 12:04:16;;;;;;;1.25;0.80;;;;;;;;;;4929112;28;20046;-77
2023/06/27 12:06:43;;;;;;;2.50;0.95;;;;;;;;;;4916194;28;20691;-78
2023/06/27 12:09:22;;;;;;;2.53;1.23;;;;;;;;;;4932012;28;20142;-78
2023/06/27 12:12:03;;;;;;;1.90;1.20;;;;;;;;;;4929002;28;20527;-77
2023/06/27 12:14:29;;;;;;;2.13;1.05;;;;;;;;;;4931456;28;20051;-78
2023/06/27 12:16:54;;;;;;;2.03;1.10;;;;;;;;;;4925151;28;20039;-78
2023/06/27 12:19:21;;;;;;;3.60;1.38;;;;;;;;;;4937344;28;20047;-78
2023/06/27 12:21:47;;;;;;;1.77;1.10;;;;;;;;;;4931637;28;20035;-78
2023/06/27 12:24:12;;;;;;;1.50;0.93;;;;;;;;;;4930536;28;20126;-78
2023/06/27 12:26:39;;;;;;;2.42;1.10;;;;;;;;;;4950931;28;20550;-77
2023/06/27 12:29:06;;;;;;;3.40;1.00;;;;;;;;;;4931469;28;20069;-78
2023/06/27 12:31:32;;;;;;;1.85;1.13;;;;;;;;;;4917929;28;20048;-77
2023/06/27 12:33:59;;;;;;;2.20;1.48;;;;;;;;;;4930388;28;20166;-78
2023/06/27 12:36:25;;;;;;;1.17;0.70;;;;;;;;;;4933599;28;20043;-78
2023/06/27 12:38:51;;;;;;;2.92;1.10;;;;;;;;;;4930833;28;20121;-78
2023/06/27 12:41:18;;;;;;;1.70;1.10;;;;;;;;;;4947352;28;20045;-78
2023/06/27 12:43:44;;;;;;;2.72;1.08;;;;;;;;;;4919854;28;20082;-77
2023/06/27 12:46:09;;;;;;;1.92;1.17;;;;;;;;;;4945558;28;20047;-77
2023/06/27 12:48:34;;;;;;;2.88;1.10;;;;;;;;;;4918384;29;20132;-76
2023/06/27 12:51:00;;;;;;;1.85;0.80;;;;;;;;;;4932725;28;20042;-77
2023/06/27 12:53:26;;;;;;;2.22;1.20;;;;;;;;;;4938501;28;20046;-76
2023/06/27 12:55:51;;;;;;;3.63;1.25;;;;;;;;;;4943966;28;20518;-77
2023/06/27 12:58:17;;;;;;;2.95;1.40;;;;;;;;;;4938143;28;20519;-78
2023/06/27 13:00:42;;;;;;;3.10;1.13;;;;;;;;;;4924006;28;20045;-77
2023/06/27 13:03:08;;;;;;;2.70;1.27;;;;;;;;;;4931159;28;20050;-77
2023/06/27 13:05:33;;;;;;;2.10;0.98;;;;;;;;;;4931225;28;20515;-76
2023/06/27 13:07:59;;;;;;;1.65;0.90;;;;;;;;;;4944246;28;21270;-77
2023/06/27 13:10:26;;;;;;;2.83;1.25;;;;;;;;;;4949275;28;20039;-77
2023/06/27 13:12:52;;;;;;;1.75;1.20;;;;;;;;;;4939354;28;20045;-76
2023/06/27 13:15:18;;;;;;;1.42;1.08;;;;;;;;;;4925239;28;20065;-77
2023/06/27 13:17:45;;;;;;;1.70;1.10;;;;;;;;;;4929261;28;20039;-77
2023/06/27 13:20:11;;;;;;;1.65;1.08;;;;;;;;;;4942054;28;20443;-77
2023/06/27 13:22:37;;;;;;;1.80;1.50;;;;;;;;;;4931164;28;20048;-77
2023/06/27 13:25:04;;;;;;;1.30;1.20;;;;;;;;;;4946128;28;20043;-78
2023/06/27 13:27:30;;;;;;;2.55;1.20;;;;;;;;;;4922785;28;20051;-78
2023/06/27 13:29:55;;;;;;;2.55;1.30;;;;;;;;;;4934864;28;20187;-77
2023/06/27 13:32:21;;;;;;;1.35;1.00;;;;;;;;;;4939085;28;20050;-78
2023/06/27 13:34:46;;;;;;;1.58;1.00;;;;;;;;;;4925158;28;20054;-77
2023/06/27 13:37:12;;;;;;;2.38;1.00;;;;;;;;;;4913224;29;20036;-78
2023/06/27 13:39:37;;;;;;;1.17;0.93;;;;;;;;;;4903475;28;20112;-78
2023/06/27 13:42:03;;;;;;;1.75;1.40;;;;;;;;;;4940255;28;20632;-77
2023/06/27 13:44:28;;;;;;;1.88;1.00;;;;;;;;;;4942099;28;20085;-77
2023/06/27 13:46:53;;;;;;;2.78;2.00;;;;;;;;;;4949980;28;20043;-77
2023/06/27 13:49:19;;;;;;;2.55;1.30;;;;;;;;;;4945190;28;20043;-78
2023/06/27 13:51:44;;;;;;;2.15;0.95;;;;;;;;;;4942860;28;20039;-77
2023/06/27 13:54:10;;;;;;;1.50;0.90;;;;;;;;;;4940237;28;20047;-77
2023/06/27 13:56:35;;;;;;;1.42;0.90;;;;;;;;;;4933443;28;20658;-78
2023/06/27 13:59:00;;;;;;;2.17;1.30;;;;;;;;;;4944120;28;20039;-78
2023/06/27 14:01:27;;;;;;;4.53;1.90;;;;;;;;;;4946674;28;20719;-78
2023/06/27 14:03:54;;;;;;;2.22;1.35;;;;;;;;;;4947584;28;20057;-78
2023/06/27 14:06:19;;;;;;;3.42;1.70;;;;;;;;;;4937464;28;20040;-77
2023/06/27 14:08:45;;;;;;;2.40;1.80;;;;;;;;;;4922051;28;20054;-78
2023/06/27 14:11:13;;;;;;;2.30;1.10;;;;;;;;;;4919206;28;20074;-78
2023/06/27 14:13:42;;;;;;;1.58;1.35;;;;;;;;;;4928497;28;20039;-77
2023/06/27 14:16:08;;;;;;;5.25;1.75;;;;;;;;;;4948986;28;20138;-78
2023/06/27 14:18:33;;;;;;;2.50;1.55;;;;;;;;;;4952546;28;20170;-77
2023/06/27 14:21:07;;;;;;;2.50;1.58;;;;;;;;;;4935843;28;20066;-78
2023/06/27 14:23:34;;;;;;;2.25;1.40;;;;;;;;;;4899648;28;20092;-79
2023/06/27 14:25:59;;;;;;;1.45;1.35;;;;;;;;;;4927512;28;20035;-78
2023/06/27 14:28:24;;;;;;;2.65;1.45;;;;;;;;;;4933696;28;20040;-77
2023/06/27 14:30:50;;;;;;;2.00;1.70;;;;;;;;;;4936626;28;20267;-78
2023/06/27 14:33:20;;;;;;;2.58;1.20;;;;;;;;;;4943903;28;20051;-78
2023/06/27 14:35:47;;;;;;;1.88;1.30;;;;;;;;;;4904134;28;20042;-78
2023/06/27 14:38:12;;;;;;;1.95;1.40;;;;;;;;;;4952506;28;20043;-78
2023/06/27 14:40:38;;;;;;;2.88;1.10;;;;;;;;;;4951248;28;20047;-77
2023/06/27 14:43:04;;;;;;;2.67;1.63;;;;;;;;;;4940237;28;20047;-78